sensor_id;sensor_type;location;lat;lon;timestamp;temperature;humidity
1546;DHT22;766;51.502;9.752;2023-04-03T00:01:45;1.20;99.90
1546;DHT22;766;51.502;9.752;2023-04-03T00:04:16;1.30;99.90
1546;DHT22;766;51.502;9.752;2023-04-03T00:06:46;1.30;99.90
1546;DHT22;766;51.502;9.752;2023-04-03T00:09:14;1.40;99.90
1546;DHT22;766;51.502;9.752;2023-04-03T00:11:43;1.30;99.90
1546;DHT22;766;51.502;9.752;2023-04-03T00:14:11;1.30;99.90
1546;DHT22;766;51.502;9.752;2023-04-03T00:16:39;1.30;99.90
1546;DHT22;766;51.502;9.752;2023-04-03T00:19:08;1.20;99.90
1546;DHT22;766;51.502;9.752;2023-04-03T00:21:38;1.20;99.90
1546;DHT22;766;51.502;9.752;2023-04-03T00:24:08;1.10;99.90
1546;DHT22;766;51.502;9.752;2023-04-03T00:26:36;1.10;99.90
1546;DHT22;766;51.502;9.752;2023-04-03T00:29:05;1.00;99.90
1546;DHT22;766;51.502;9.752;2023-04-03T00:31:33;1.00;99.90
1546;DHT22;766;51.502;9.752;2023-04-03T00:34:02;0.90;99.90
1546;DHT22;766;51.502;9.752;2023-04-03T00:36:30;0.90;99.90
1546;DHT22;766;51.502;9.752;2023-04-03T00:38:58;0.90;99.90
1546;DHT22;766;51.502;9.752;2023-04-03T00:41:28;0.90;99.90
1546;DHT22;766;51.502;9.752;2023-04-03T00:43:57;0.80;99.90
1546;DHT22;766;51.502;9.752;2023-04-03T00:46:25;0.60;99.90
1546;DHT22;766;51.502;9.752;2023-04-03T00:48:53;0.60;99.90
1546;DHT22;766;51.502;9.752;2023-04-03T00:51:24;0.60;99.90
1546;DHT22;766;51.502;9.752;2023-04-03T00:53:55;0.60;99.90
1546;DHT22;766;51.502;9.752;2023-04-03T00:56:28;0.50;99.90
1546;DHT22;766;51.502;9.752;2023-04-03T00:58:59;0.50;99.90
1546;DHT22;766;51.502;9.752;2023-04-03T01:01:29;0.20;99.90
1546;DHT22;766;51.502;9.752;2023-04-03T01:03:59;0.30;99.90
1546;DHT22;766;51.502;9.752;2023-04-03T01:06:30;0.30;99.90
1546;DHT22;766;51.502;9.752;2023-04-03T01:09:00;0.30;99.90
1546;DHT22;766;51.502;9.752;2023-04-03T01:11:32;0.30;99.90
1546;DHT22;766;51.502;9.752;2023-04-03T01:14:01;0.30;99.90
1546;DHT22;766;51.502;9.752;2023-04-03T01:16:30;0.40;99.90
1546;DHT22;766;51.502;9.752;2023-04-03T01:18:59;0.40;99.90
1546;DHT22;766;51.502;9.752;2023-04-03T01:21:54;0.30;99.90
1546;DHT22;766;51.502;9.752;2023-04-03T01:24:32;0.40;99.90
1546;DHT22;766;51.502;9.752;2023-04-03T01:27:05;0.40;99.90
1546;DHT22;766;51.502;9.752;2023-04-03T01:29:34;0.40;99.90
1546;DHT22;766;51.502;9.752;2023-04-03T01:32:04;0.40;99.90
1546;DHT22;766;51.502;9.752;2023-04-03T01:34:32;0.30;99.90
1546;DHT22;766;51.502;9.752;2023-04-03T01:37:02;0.30;99.90
1546;DHT22;766;51.502;9.752;2023-04-03T01:39:33;0.30;99.90
1546;DHT22;766;51.502;9.752;2023-04-03T01:42:02;0.20;99.90
1546;DHT22;766;51.502;9.752;2023-04-03T01:44:31;0.20;99.90
1546;DHT22;766;51.502;9.752;2023-04-03T01:46:59;0.20;99.90
1546;DHT22;766;51.502;9.752;2023-04-03T01:49:29;0.10;99.90
1546;DHT22;766;51.502;9.752;2023-04-03T01:51:57;-0.10;99.90
1546;DHT22;766;51.502;9.752;2023-04-03T01:54:26;0.00;99.90
1546;DHT22;766;51.502;9.752;2023-04-03T01:56:54;0.00;99.90
1546;DHT22;766;51.502;9.752;2023-04-03T01:59:23;-0.10;99.90
1546;DHT22;766;51.502;9.752;2023-04-03T02:01:51;-0.10;99.90
1546;DHT22;766;51.502;9.752;2023-04-03T02:04:22;-0.10;99.90
1546;DHT22;766;51.502;9.752;2023-04-03T02:06:52;-0.10;99.90
1546;DHT22;766;51.502;9.752;2023-04-03T02:09:21;0.00;99.90
1546;DHT22;766;51.502;9.752;2023-04-03T02:11:49;-0.10;99.90
1546;DHT22;766;51.502;9.752;2023-04-03T02:14:17;-0.10;99.90
1546;DHT22;766;51.502;9.752;2023-04-03T02:16:45;-0.20;99.90
1546;DHT22;766;51.502;9.752;2023-04-03T02:19:14;-0.20;99.90
1546;DHT22;766;51.502;9.752;2023-04-03T02:21:42;-0.20;99.90
1546;DHT22;766;51.502;9.752;2023-04-03T02:24:11;-0.30;99.90
1546;DHT22;766;51.502;9.752;2023-04-03T02:26:39;-0.30;99.90
1546;DHT22;766;51.502;9.752;2023-04-03T02:29:08;-0.40;99.90
1546;DHT22;766;51.502;9.752;2023-04-03T02:31:36;-0.40;99.90
1546;DHT22;766;51.502;9.752;2023-04-03T02:34:04;-0.40;99.90
1546;DHT22;766;51.502;9.752;2023-04-03T02:36:35;-0.40;99.90
1546;DHT22;766;51.502;9.752;2023-04-03T02:39:04;-0.50;99.90
1546;DHT22;766;51.502;9.752;2023-04-03T02:41:33;-0.50;99.90
1546;DHT22;766;51.502;9.752;2023-04-03T02:44:04;-0.50;99.90
1546;DHT22;766;51.502;9.752;2023-04-03T02:46:32;-0.50;99.90
1546;DHT22;766;51.502;9.752;2023-04-03T02:49:02;-0.50;99.90
1546;DHT22;766;51.502;9.752;2023-04-03T02:51:30;-0.50;99.90
1546;DHT22;766;51.502;9.752;2023-04-03T02:53:59;-0.60;99.90
1546;DHT22;766;51.502;9.752;2023-04-03T02:56:27;-0.60;99.90
1546;DHT22;766;51.502;9.752;2023-04-03T02:58:57;-0.50;99.90
1546;DHT22;766;51.502;9.752;2023-04-03T03:01:25;-0.50;99.90
1546;DHT22;766;51.502;9.752;2023-04-03T03:03:55;-0.60;99.90
1546;DHT22;766;51.502;9.752;2023-04-03T03:06:23;-0.60;99.90
1546;DHT22;766;51.502;9.752;2023-04-03T03:08:53;-0.60;99.90
1546;DHT22;766;51.502;9.752;2023-04-03T03:11:21;-0.70;99.90
1546;DHT22;766;51.502;9.752;2023-04-03T03:13:50;-0.70;99.90
1546;DHT22;766;51.502;9.752;2023-04-03T03:16:20;-0.70;99.90
1546;DHT22;766;51.502;9.752;2023-04-03T03:18:48;-0.80;99.90
1546;DHT22;766;51.502;9.752;2023-04-03T03:21:17;-0.80;99.90
1546;DHT22;766;51.502;9.752;2023-04-03T03:23:45;-0.90;99.90
1546;DHT22;766;51.502;9.752;2023-04-03T03:26:14;-1.00;99.90
1546;DHT22;766;51.502;9.752;2023-04-03T03:28:42;-1.00;99.90
1546;DHT22;766;51.502;9.752;2023-04-03T03:31:10;-1.00;99.90
1546;DHT22;766;51.502;9.752;2023-04-03T03:33:41;-0.90;99.90
1546;DHT22;766;51.502;9.752;2023-04-03T03:36:09;-0.90;99.90
1546;DHT22;766;51.502;9.752;2023-04-03T03:38:39;-0.90;99.90
1546;DHT22;766;51.502;9.752;2023-04-03T03:41:07;-1.00;99.90
1546;DHT22;766;51.502;9.752;2023-04-03T03:43:35;-1.10;99.90
1546;DHT22;766;51.502;9.752;2023-04-03T03:46:04;-1.10;99.90
1546;DHT22;766;51.502;9.752;2023-04-03T03:48:32;-1.10;99.90
1546;DHT22;766;51.502;9.752;2023-04-03T03:51:03;-1.10;99.90
1546;DHT22;766;51.502;9.752;2023-04-03T03:53:31;-1.00;99.90
1546;DHT22;766;51.502;9.752;2023-04-03T03:55:59;-1.00;99.90
1546;DHT22;766;51.502;9.752;2023-04-03T03:58:28;-1.00;99.90
1546;DHT22;766;51.502;9.752;2023-04-03T04:00:56;-1.10;99.90
1546;DHT22;766;51.502;9.752;2023-04-03T04:03:24;-1.10;99.90
1546;DHT22;766;51.502;9.752;2023-04-03T04:05:53;-1.10;99.90
1546;DHT22;766;51.502;9.752;2023-04-03T04:08:23;-1.20;99.90
1546;DHT22;766;51.502;9.752;2023-04-03T04:10:51;-1.30;99.90
1546;DHT22;766;51.502;9.752;2023-04-03T04:13:21;-1.30;99.90
1546;DHT22;766;51.502;9.752;2023-04-03T04:15:49;-1.40;99.90
1546;DHT22;766;51.502;9.752;2023-04-03T04:18:18;-1.40;99.90
1546;DHT22;766;51.502;9.752;2023-04-03T04:20:47;-1.30;99.90
1546;DHT22;766;51.502;9.752;2023-04-03T04:23:16;-1.30;99.90
1546;DHT22;766;51.502;9.752;2023-04-03T04:25:50;-1.20;99.90
1546;DHT22;766;51.502;9.752;2023-04-03T04:28:19;-1.20;99.90
1546;DHT22;766;51.502;9.752;2023-04-03T04:30:47;-1.30;99.90
1546;DHT22;766;51.502;9.752;2023-04-03T04:33:35;-1.30;99.90
1546;DHT22;766;51.502;9.752;2023-04-03T04:36:24;-1.30;99.90
1546;DHT22;766;51.502;9.752;2023-04-03T04:38:52;-1.40;99.90
1546;DHT22;766;51.502;9.752;2023-04-03T04:41:23;-1.40;99.90
1546;DHT22;766;51.502;9.752;2023-04-03T04:43:52;-1.50;99.90
1546;DHT22;766;51.502;9.752;2023-04-03T04:46:20;-1.30;99.90
1546;DHT22;766;51.502;9.752;2023-04-03T04:48:49;-1.40;99.90
1546;DHT22;766;51.502;9.752;2023-04-03T04:51:17;-1.40;99.90
1546;DHT22;766;51.502;9.752;2023-04-03T04:53:45;-1.50;99.90
1546;DHT22;766;51.502;9.752;2023-04-03T04:56:14;-1.40;99.90
1546;DHT22;766;51.502;9.752;2023-04-03T04:58:43;-1.50;99.90
1546;DHT22;766;51.502;9.752;2023-04-03T05:01:12;-1.60;99.90
1546;DHT22;766;51.502;9.752;2023-04-03T05:03:42;-1.70;99.90
1546;DHT22;766;51.502;9.752;2023-04-03T05:06:11;-1.80;99.90
1546;DHT22;766;51.502;9.752;2023-04-03T05:08:40;-1.70;99.90
1546;DHT22;766;51.502;9.752;2023-04-03T05:11:09;-1.70;99.90
1546;DHT22;766;51.502;9.752;2023-04-03T05:13:37;-1.90;99.90
1546;DHT22;766;51.502;9.752;2023-04-03T05:16:07;-1.70;99.90
1546;DHT22;766;51.502;9.752;2023-04-03T05:18:36;-1.60;99.90
1546;DHT22;766;51.502;9.752;2023-04-03T05:21:04;-1.70;99.90
1546;DHT22;766;51.502;9.752;2023-04-03T05:23:37;-1.70;99.90
1546;DHT22;766;51.502;9.752;2023-04-03T05:26:05;-1.60;99.90
1546;DHT22;766;51.502;9.752;2023-04-03T05:28:34;-1.60;99.90
1546;DHT22;766;51.502;9.752;2023-04-03T05:31:03;-1.60;99.90
1546;DHT22;766;51.502;9.752;2023-04-03T05:33:33;-1.50;99.90
1546;DHT22;766;51.502;9.752;2023-04-03T05:36:03;-1.40;99.90
1546;DHT22;766;51.502;9.752;2023-04-03T05:38:32;-1.30;99.90
1546;DHT22;766;51.502;9.752;2023-04-03T05:41:01;-1.10;99.90
1546;DHT22;766;51.502;9.752;2023-04-03T05:43:29;-1.00;99.90
1546;DHT22;766;51.502;9.752;2023-04-03T05:45:58;-0.90;99.90
1546;DHT22;766;51.502;9.752;2023-04-03T05:48:27;-0.80;99.90
1546;DHT22;766;51.502;9.752;2023-04-03T05:50:56;-0.80;99.90
1546;DHT22;766;51.502;9.752;2023-04-03T05:53:27;-0.60;99.90
1546;DHT22;766;51.502;9.752;2023-04-03T05:55:56;-0.40;99.90
1546;DHT22;766;51.502;9.752;2023-04-03T05:58:24;-0.30;99.90
1546;DHT22;766;51.502;9.752;2023-04-03T06:00:53;-0.30;99.90
1546;DHT22;766;51.502;9.752;2023-04-03T06:03:21;-0.20;99.90
1546;DHT22;766;51.502;9.752;2023-04-03T06:05:50;-0.30;99.90
1546;DHT22;766;51.502;9.752;2023-04-03T06:08:20;0.00;99.90
1546;DHT22;766;51.502;9.752;2023-04-03T06:10:49;0.20;99.90
1546;DHT22;766;51.502;9.752;2023-04-03T06:13:17;0.30;99.90
1546;DHT22;766;51.502;9.752;2023-04-03T06:15:45;0.50;99.90
1546;DHT22;766;51.502;9.752;2023-04-03T06:18:14;0.40;99.90
1546;DHT22;766;51.502;9.752;2023-04-03T06:20:42;0.50;99.90
1546;DHT22;766;51.502;9.752;2023-04-03T06:23:10;0.50;99.90
1546;DHT22;766;51.502;9.752;2023-04-03T06:25:40;0.80;99.90
1546;DHT22;766;51.502;9.752;2023-04-03T06:28:09;0.70;99.90
1546;DHT22;766;51.502;9.752;2023-04-03T06:30:37;0.80;99.90
1546;DHT22;766;51.502;9.752;2023-04-03T06:33:06;0.90;99.90
1546;DHT22;766;51.502;9.752;2023-04-03T06:35:35;1.00;99.90
1546;DHT22;766;51.502;9.752;2023-04-03T06:38:05;1.20;99.90
1546;DHT22;766;51.502;9.752;2023-04-03T06:40:36;1.20;99.90
1546;DHT22;766;51.502;9.752;2023-04-03T06:43:07;1.20;99.90
1546;DHT22;766;51.502;9.752;2023-04-03T06:45:36;1.30;99.90
1546;DHT22;766;51.502;9.752;2023-04-03T06:48:05;1.60;99.90
1546;DHT22;766;51.502;9.752;2023-04-03T06:50:33;1.80;99.90
1546;DHT22;766;51.502;9.752;2023-04-03T06:53:02;1.90;99.90
1546;DHT22;766;51.502;9.752;2023-04-03T06:55:30;1.80;99.90
1546;DHT22;766;51.502;9.752;2023-04-03T06:58:03;1.80;99.90
1546;DHT22;766;51.502;9.752;2023-04-03T07:00:33;1.90;99.90
1546;DHT22;766;51.502;9.752;2023-04-03T07:03:01;1.80;99.90
1546;DHT22;766;51.502;9.752;2023-04-03T07:05:29;1.90;99.90
1546;DHT22;766;51.502;9.752;2023-04-03T07:07:58;2.00;99.90
1546;DHT22;766;51.502;9.752;2023-04-03T07:10:28;2.00;99.90
1546;DHT22;766;51.502;9.752;2023-04-03T07:12:56;2.20;99.90
1546;DHT22;766;51.502;9.752;2023-04-03T07:15:24;2.30;99.90
1546;DHT22;766;51.502;9.752;2023-04-03T07:17:55;2.20;99.90
1546;DHT22;766;51.502;9.752;2023-04-03T07:20:23;2.30;99.90
1546;DHT22;766;51.502;9.752;2023-04-03T07:22:53;2.30;99.90
1546;DHT22;766;51.502;9.752;2023-04-03T07:25:21;2.30;99.90
1546;DHT22;766;51.502;9.752;2023-04-03T07:27:50;2.70;99.90
1546;DHT22;766;51.502;9.752;2023-04-03T07:30:18;2.90;99.90
1546;DHT22;766;51.502;9.752;2023-04-03T07:32:47;3.10;99.90
1546;DHT22;766;51.502;9.752;2023-04-03T07:35:17;3.00;99.90
1546;DHT22;766;51.502;9.752;2023-04-03T07:37:45;2.80;99.90
1546;DHT22;766;51.502;9.752;2023-04-03T07:40:14;2.70;99.90
1546;DHT22;766;51.502;9.752;2023-04-03T07:42:44;3.00;99.90
1546;DHT22;766;51.502;9.752;2023-04-03T07:45:13;3.40;99.90
1546;DHT22;766;51.502;9.752;2023-04-03T07:47:41;3.30;99.90
1546;DHT22;766;51.502;9.752;2023-04-03T07:50:10;3.40;99.90
1546;DHT22;766;51.502;9.752;2023-04-03T07:52:40;3.60;99.90
1546;DHT22;766;51.502;9.752;2023-04-03T07:55:09;3.40;99.90
1546;DHT22;766;51.502;9.752;2023-04-03T07:57:37;3.80;99.90
1546;DHT22;766;51.502;9.752;2023-04-03T08:00:07;3.90;99.90
1546;DHT22;766;51.502;9.752;2023-04-03T08:02:36;4.10;99.90
1546;DHT22;766;51.502;9.752;2023-04-03T08:05:05;3.90;99.90
1546;DHT22;766;51.502;9.752;2023-04-03T08:07:33;4.10;99.90
1546;DHT22;766;51.502;9.752;2023-04-03T08:10:06;4.30;99.90
1546;DHT22;766;51.502;9.752;2023-04-03T08:12:35;3.70;99.90
1546;DHT22;766;51.502;9.752;2023-04-03T08:15:05;3.80;99.90
1546;DHT22;766;51.502;9.752;2023-04-03T08:17:34;3.80;99.90
1546;DHT22;766;51.502;9.752;2023-04-03T08:20:03;4.10;99.90
1546;DHT22;766;51.502;9.752;2023-04-03T08:22:33;4.70;99.90
1546;DHT22;766;51.502;9.752;2023-04-03T08:25:09;5.00;99.90
1546;DHT22;766;51.502;9.752;2023-04-03T08:27:37;5.40;99.90
1546;DHT22;766;51.502;9.752;2023-04-03T08:30:07;5.60;99.90
1546;DHT22;766;51.502;9.752;2023-04-03T08:32:36;5.90;99.90
1546;DHT22;766;51.502;9.752;2023-04-03T08:35:05;5.90;99.90
1546;DHT22;766;51.502;9.752;2023-04-03T08:37:35;5.80;99.90
1546;DHT22;766;51.502;9.752;2023-04-03T08:40:14;6.10;99.90
1546;DHT22;766;51.502;9.752;2023-04-03T08:42:49;5.00;99.90
1546;DHT22;766;51.502;9.752;2023-04-03T08:45:25;5.20;99.90
1546;DHT22;766;51.502;9.752;2023-04-03T08:47:59;5.90;99.90
1546;DHT22;766;51.502;9.752;2023-04-03T08:50:31;5.70;99.90
1546;DHT22;766;51.502;9.752;2023-04-03T08:53:02;5.80;99.90
1546;DHT22;766;51.502;9.752;2023-04-03T08:55:40;5.40;99.90
1546;DHT22;766;51.502;9.752;2023-04-03T08:58:12;5.60;99.90
1546;DHT22;766;51.502;9.752;2023-04-03T09:00:45;4.80;99.90
1546;DHT22;766;51.502;9.752;2023-04-03T09:03:17;4.80;99.90
1546;DHT22;766;51.502;9.752;2023-04-03T09:05:49;5.00;99.90
1546;DHT22;766;51.502;9.752;2023-04-03T09:08:23;5.30;99.90
1546;DHT22;766;51.502;9.752;2023-04-03T09:11:00;5.30;99.90
1546;DHT22;766;51.502;9.752;2023-04-03T09:13:39;4.90;99.90
1546;DHT22;766;51.502;9.752;2023-04-03T09:16:27;4.30;99.90
1546;DHT22;766;51.502;9.752;2023-04-03T09:19:05;5.40;99.90
1546;DHT22;766;51.502;9.752;2023-04-03T09:21:39;5.60;99.90
1546;DHT22;766;51.502;9.752;2023-04-03T09:24:11;4.60;99.90
1546;DHT22;766;51.502;9.752;2023-04-03T09:26:44;5.30;99.90
1546;DHT22;766;51.502;9.752;2023-04-03T09:29:18;5.60;99.90
1546;DHT22;766;51.502;9.752;2023-04-03T09:31:48;5.40;99.90
1546;DHT22;766;51.502;9.752;2023-04-03T09:34:21;5.00;99.90
1546;DHT22;766;51.502;9.752;2023-04-03T09:36:51;4.90;99.90
1546;DHT22;766;51.502;9.752;2023-04-03T09:39:21;6.10;99.90
1546;DHT22;766;51.502;9.752;2023-04-03T09:42:01;6.20;99.90
1546;DHT22;766;51.502;9.752;2023-04-03T09:44:31;5.50;99.90
1546;DHT22;766;51.502;9.752;2023-04-03T09:47:18;4.20;99.90
1546;DHT22;766;51.502;9.752;2023-04-03T09:49:47;4.60;99.90
1546;DHT22;766;51.502;9.752;2023-04-03T09:52:19;4.10;99.90
1546;DHT22;766;51.502;9.752;2023-04-03T09:54:48;5.10;99.90
1546;DHT22;766;51.502;9.752;2023-04-03T09:57:18;5.30;99.90
1546;DHT22;766;51.502;9.752;2023-04-03T09:59:57;5.10;99.90
1546;DHT22;766;51.502;9.752;2023-04-03T10:02:35;5.50;99.90
1546;DHT22;766;51.502;9.752;2023-04-03T10:05:23;5.00;99.90
1546;DHT22;766;51.502;9.752;2023-04-03T10:08:07;4.80;99.90
1546;DHT22;766;51.502;9.752;2023-04-03T10:10:36;4.00;99.90
1546;DHT22;766;51.502;9.752;2023-04-03T10:13:11;4.50;99.90
1546;DHT22;766;51.502;9.752;2023-04-03T10:15:51;5.80;99.90
1546;DHT22;766;51.502;9.752;2023-04-03T10:18:30;4.90;99.90
1546;DHT22;766;51.502;9.752;2023-04-03T10:21:03;3.90;99.90
1546;DHT22;766;51.502;9.752;2023-04-03T10:23:41;4.10;99.90
1546;DHT22;766;51.502;9.752;2023-04-03T10:26:17;4.40;99.90
1546;DHT22;766;51.502;9.752;2023-04-03T10:28:59;5.20;99.90
1546;DHT22;766;51.502;9.752;2023-04-03T10:31:37;5.90;99.90
1546;DHT22;766;51.502;9.752;2023-04-03T10:34:18;4.80;99.90
1546;DHT22;766;51.502;9.752;2023-04-03T10:36:59;5.10;99.90
1546;DHT22;766;51.502;9.752;2023-04-03T10:39:35;4.80;99.90
1546;DHT22;766;51.502;9.752;2023-04-03T10:42:09;4.60;99.90
1546;DHT22;766;51.502;9.752;2023-04-03T10:45:03;4.40;99.90
1546;DHT22;766;51.502;9.752;2023-04-03T10:47:40;4.60;99.90
1546;DHT22;766;51.502;9.752;2023-04-03T10:50:26;4.80;99.90
1546;DHT22;766;51.502;9.752;2023-04-03T10:53:03;4.90;99.90
1546;DHT22;766;51.502;9.752;2023-04-03T10:55:36;4.80;99.90
1546;DHT22;766;51.502;9.752;2023-04-03T10:58:10;4.80;99.90
1546;DHT22;766;51.502;9.752;2023-04-03T11:00:46;4.90;99.90
1546;DHT22;766;51.502;9.752;2023-04-03T11:03:22;5.10;99.90
1546;DHT22;766;51.502;9.752;2023-04-03T11:05:55;5.20;99.90
1546;DHT22;766;51.502;9.752;2023-04-03T11:08:27;5.20;99.90
1546;DHT22;766;51.502;9.752;2023-04-03T11:10:59;5.20;99.90
1546;DHT22;766;51.502;9.752;2023-04-03T11:13:33;5.20;99.90
1546;DHT22;766;51.502;9.752;2023-04-03T11:16:04;5.20;99.90
1546;DHT22;766;51.502;9.752;2023-04-03T11:18:37;5.20;99.90
1546;DHT22;766;51.502;9.752;2023-04-03T11:21:13;4.60;99.90
1546;DHT22;766;51.502;9.752;2023-04-03T11:23:44;4.70;99.90
1546;DHT22;766;51.502;9.752;2023-04-03T11:26:18;4.90;99.90
1546;DHT22;766;51.502;9.752;2023-04-03T11:28:53;5.00;99.90
1546;DHT22;766;51.502;9.752;2023-04-03T11:31:43;5.30;99.90
1546;DHT22;766;51.502;9.752;2023-04-03T11:34:24;4.90;99.90
1546;DHT22;766;51.502;9.752;2023-04-03T11:36:57;4.30;99.90
1546;DHT22;766;51.502;9.752;2023-04-03T11:39:30;5.40;99.90
1546;DHT22;766;51.502;9.752;2023-04-03T11:42:27;7.10;99.90
1546;DHT22;766;51.502;9.752;2023-04-03T11:45:15;7.10;99.90
1546;DHT22;766;51.502;9.752;2023-04-03T11:47:48;7.90;99.90
1546;DHT22;766;51.502;9.752;2023-04-03T11:50:32;7.60;99.90
1546;DHT22;766;51.502;9.752;2023-04-03T11:53:26;5.90;99.90
1546;DHT22;766;51.502;9.752;2023-04-03T11:56:00;6.10;99.90
1546;DHT22;766;51.502;9.752;2023-04-03T11:58:30;6.10;99.90
1546;DHT22;766;51.502;9.752;2023-04-03T12:01:05;6.20;99.90
1546;DHT22;766;51.502;9.752;2023-04-03T12:04:03;6.20;99.90
1546;DHT22;766;51.502;9.752;2023-04-03T12:10:13;6.30;99.90
1546;DHT22;766;51.502;9.752;2023-04-03T12:12:59;6.00;99.90
1546;DHT22;766;51.502;9.752;2023-04-03T12:15:52;5.90;99.90
1546;DHT22;766;51.502;9.752;2023-04-03T12:18:56;5.80;99.90
1546;DHT22;766;51.502;9.752;2023-04-03T12:24:28;7.00;99.90
1546;DHT22;766;51.502;9.752;2023-04-03T12:27:22;6.50;99.90
1546;DHT22;766;51.502;9.752;2023-04-03T12:29:58;5.90;99.90
1546;DHT22;766;51.502;9.752;2023-04-03T12:32:49;6.30;99.90
1546;DHT22;766;51.502;9.752;2023-04-03T12:35:44;6.40;99.90
1546;DHT22;766;51.502;9.752;2023-04-03T12:38:31;6.10;99.90
1546;DHT22;766;51.502;9.752;2023-04-03T12:41:16;6.20;99.90
1546;DHT22;766;51.502;9.752;2023-04-03T12:44:01;6.10;99.90
1546;DHT22;766;51.502;9.752;2023-04-03T12:46:37;5.80;99.90
1546;DHT22;766;51.502;9.752;2023-04-03T12:52:03;6.40;99.90
1546;DHT22;766;51.502;9.752;2023-04-03T12:54:36;6.50;99.90
1546;DHT22;766;51.502;9.752;2023-04-03T12:57:11;6.30;99.90
1546;DHT22;766;51.502;9.752;2023-04-03T12:59:41;6.50;99.90
1546;DHT22;766;51.502;9.752;2023-04-03T13:02:21;5.80;99.90
1546;DHT22;766;51.502;9.752;2023-04-03T13:04:51;5.30;99.90
1546;DHT22;766;51.502;9.752;2023-04-03T13:07:23;5.70;99.90
1546;DHT22;766;51.502;9.752;2023-04-03T13:10:03;6.20;99.90
1546;DHT22;766;51.502;9.752;2023-04-03T13:12:32;6.40;99.90
1546;DHT22;766;51.502;9.752;2023-04-03T13:15:12;6.60;99.90
1546;DHT22;766;51.502;9.752;2023-04-03T13:17:41;6.60;99.90
1546;DHT22;766;51.502;9.752;2023-04-03T13:20:12;6.70;99.90
1546;DHT22;766;51.502;9.752;2023-04-03T13:22:48;6.60;99.90
1546;DHT22;766;51.502;9.752;2023-04-03T13:25:20;6.50;99.90
1546;DHT22;766;51.502;9.752;2023-04-03T13:27:49;6.50;99.90
1546;DHT22;766;51.502;9.752;2023-04-03T13:30:27;6.60;99.90
1546;DHT22;766;51.502;9.752;2023-04-03T13:32:59;6.20;99.90
1546;DHT22;766;51.502;9.752;2023-04-03T13:35:36;6.10;99.90
1546;DHT22;766;51.502;9.752;2023-04-03T13:38:22;6.40;99.90
1546;DHT22;766;51.502;9.752;2023-04-03T13:40:53;6.60;99.90
1546;DHT22;766;51.502;9.752;2023-04-03T13:43:25;6.90;99.90
1546;DHT22;766;51.502;9.752;2023-04-03T13:46:05;7.00;99.90
1546;DHT22;766;51.502;9.752;2023-04-03T13:48:39;6.80;99.90
1546;DHT22;766;51.502;9.752;2023-04-03T13:51:18;6.30;99.90
1546;DHT22;766;51.502;9.752;2023-04-03T13:53:51;6.30;99.90
1546;DHT22;766;51.502;9.752;2023-04-03T13:56:38;6.40;99.90
1546;DHT22;766;51.502;9.752;2023-04-03T13:59:23;6.50;99.90
1546;DHT22;766;51.502;9.752;2023-04-03T14:01:54;6.60;99.90
1546;DHT22;766;51.502;9.752;2023-04-03T14:04:25;6.70;99.90
1546;DHT22;766;51.502;9.752;2023-04-03T14:06:55;6.80;99.90
1546;DHT22;766;51.502;9.752;2023-04-03T14:09:26;6.70;99.90
1546;DHT22;766;51.502;9.752;2023-04-03T14:11:58;6.70;99.90
1546;DHT22;766;51.502;9.752;2023-04-03T14:14:31;6.80;99.90
1546;DHT22;766;51.502;9.752;2023-04-03T14:17:01;6.70;99.90
1546;DHT22;766;51.502;9.752;2023-04-03T14:19:32;6.80;99.90
1546;DHT22;766;51.502;9.752;2023-04-03T14:22:07;6.80;99.90
1546;DHT22;766;51.502;9.752;2023-04-03T14:24:40;6.60;99.90
1546;DHT22;766;51.502;9.752;2023-04-03T14:27:15;6.40;99.90
1546;DHT22;766;51.502;9.752;2023-04-03T14:29:45;6.20;99.90
1546;DHT22;766;51.502;9.752;2023-04-03T14:32:15;6.10;99.90
1546;DHT22;766;51.502;9.752;2023-04-03T14:34:44;6.10;99.90
1546;DHT22;766;51.502;9.752;2023-04-03T14:37:19;6.00;99.90
1546;DHT22;766;51.502;9.752;2023-04-03T14:39:50;6.30;99.90
1546;DHT22;766;51.502;9.752;2023-04-03T14:42:22;6.40;99.90
1546;DHT22;766;51.502;9.752;2023-04-03T14:44:51;6.60;99.90
1546;DHT22;766;51.502;9.752;2023-04-03T14:47:23;6.80;99.90
1546;DHT22;766;51.502;9.752;2023-04-03T14:50:02;7.10;99.90
1546;DHT22;766;51.502;9.752;2023-04-03T14:52:34;6.70;99.90
1546;DHT22;766;51.502;9.752;2023-04-03T14:55:07;6.60;99.90
1546;DHT22;766;51.502;9.752;2023-04-03T14:57:36;6.20;99.90
1546;DHT22;766;51.502;9.752;2023-04-03T15:00:11;5.80;99.90
1546;DHT22;766;51.502;9.752;2023-04-03T15:02:40;5.80;99.90
1546;DHT22;766;51.502;9.752;2023-04-03T15:05:10;5.90;99.90
1546;DHT22;766;51.502;9.752;2023-04-03T15:07:40;5.90;99.90
1546;DHT22;766;51.502;9.752;2023-04-03T15:10:18;6.00;99.90
1546;DHT22;766;51.502;9.752;2023-04-03T15:12:48;5.70;99.90
1546;DHT22;766;51.502;9.752;2023-04-03T15:15:18;5.20;99.90
1546;DHT22;766;51.502;9.752;2023-04-03T15:17:49;5.40;99.90
1546;DHT22;766;51.502;9.752;2023-04-03T15:20:22;5.40;99.90
1546;DHT22;766;51.502;9.752;2023-04-03T15:22:52;5.70;99.90
1546;DHT22;766;51.502;9.752;2023-04-03T15:25:22;5.80;99.90
1546;DHT22;766;51.502;9.752;2023-04-03T15:27:50;5.80;99.90
1546;DHT22;766;51.502;9.752;2023-04-03T15:30:19;5.80;99.90
1546;DHT22;766;51.502;9.752;2023-04-03T15:32:48;5.50;99.90
1546;DHT22;766;51.502;9.752;2023-04-03T15:35:17;5.50;99.90
1546;DHT22;766;51.502;9.752;2023-04-03T15:37:46;5.40;99.90
1546;DHT22;766;51.502;9.752;2023-04-03T15:40:15;5.20;99.90
1546;DHT22;766;51.502;9.752;2023-04-03T15:42:45;5.20;99.90
1546;DHT22;766;51.502;9.752;2023-04-03T15:45:13;5.20;99.90
1546;DHT22;766;51.502;9.752;2023-04-03T15:47:42;5.10;99.90
1546;DHT22;766;51.502;9.752;2023-04-03T15:50:11;5.40;99.90
1546;DHT22;766;51.502;9.752;2023-04-03T15:52:39;5.30;99.90
1546;DHT22;766;51.502;9.752;2023-04-03T15:55:08;5.30;99.90
1546;DHT22;766;51.502;9.752;2023-04-03T15:57:40;5.40;99.90
1546;DHT22;766;51.502;9.752;2023-04-03T16:00:11;5.30;99.90
1546;DHT22;766;51.502;9.752;2023-04-03T16:02:40;5.20;99.90
1546;DHT22;766;51.502;9.752;2023-04-03T16:05:09;5.30;99.90
1546;DHT22;766;51.502;9.752;2023-04-03T16:07:39;5.30;99.90
1546;DHT22;766;51.502;9.752;2023-04-03T16:10:09;5.30;99.90
1546;DHT22;766;51.502;9.752;2023-04-03T16:12:37;5.30;99.90
1546;DHT22;766;51.502;9.752;2023-04-03T16:15:06;5.20;99.90
1546;DHT22;766;51.502;9.752;2023-04-03T16:17:37;5.30;99.90
1546;DHT22;766;51.502;9.752;2023-04-03T16:20:10;5.20;99.90
1546;DHT22;766;51.502;9.752;2023-04-03T16:22:39;5.20;99.90
1546;DHT22;766;51.502;9.752;2023-04-03T16:25:08;5.10;99.90
1546;DHT22;766;51.502;9.752;2023-04-03T16:27:37;4.80;99.90
1546;DHT22;766;51.502;9.752;2023-04-03T16:30:06;4.50;99.90
1546;DHT22;766;51.502;9.752;2023-04-03T16:32:37;4.70;99.90
1546;DHT22;766;51.502;9.752;2023-04-03T16:35:07;4.80;99.90
1546;DHT22;766;51.502;9.752;2023-04-03T16:37:37;4.80;99.90
1546;DHT22;766;51.502;9.752;2023-04-03T16:40:07;4.90;99.90
1546;DHT22;766;51.502;9.752;2023-04-03T16:42:38;4.80;99.90
1546;DHT22;766;51.502;9.752;2023-04-03T16:45:08;4.80;99.90
1546;DHT22;766;51.502;9.752;2023-04-03T16:47:37;4.70;99.90
1546;DHT22;766;51.502;9.752;2023-04-03T16:50:07;4.70;99.90
1546;DHT22;766;51.502;9.752;2023-04-03T16:52:36;4.70;99.90
1546;DHT22;766;51.502;9.752;2023-04-03T16:55:05;4.60;99.90
1546;DHT22;766;51.502;9.752;2023-04-03T16:57:34;4.60;99.90
1546;DHT22;766;51.502;9.752;2023-04-03T17:00:03;4.50;99.90
1546;DHT22;766;51.502;9.752;2023-04-03T17:02:32;4.60;99.90
1546;DHT22;766;51.502;9.752;2023-04-03T17:05:02;4.60;99.90
1546;DHT22;766;51.502;9.752;2023-04-03T17:07:30;4.50;99.90
1546;DHT22;766;51.502;9.752;2023-04-03T17:10:00;4.50;99.90